Terminal Aerodrome Forecast
Issued by NWS

Home | Current Version | Previous Version | Text Only | Print | Product List | Glossary On
Versions: 1 2 3 4 5 6 7 8 9 10 11 12 13 14
953
FTUS41 KBGM 281036 AAA
TAFRME
TAF AMD
KRME 281036Z 2811/2906 VRB03KT P6SM BKN250
      TEMPO 2811/2813 4SM BR
     FM281300 25008KT P6SM SCT050 BKN250
     FM290100 VRB03KT P6SM SCT050 BKN100=

USA.gov is the U.S. government's official web portal to all federal, state and local government web resources and services.